Main page
METAR-TAF:

METAR-TAF

Airports :

Trieste – Friuli Venezia Giulia Airport

Trieste / Ronchi dei Legionari, Italy

latitude: 45-49N, longitude: 013-29E, elevation: 12 m

Current weather observation

The report was made 27 minutes ago, at 08:20 UTC
Wind 3 kt from the North
Temperature 10°C
Humidity 93%
Pressure 1021 hPa
Visibility 10 km or more
Broken clouds at a height of 1500 ft
Overcast at a height of 5000 ft

METAR: LIPQ 160820Z 01003KT 9999 BKN015 OVC050 10/09 Q1021

Time: 09:47 (08:47 UTC)

Forecast

The report was made 3 hours and 47 minutes ago, at 05:00 UTC
Forecast valid from 16 at 06 UTC to 17 at 06 UTC
Wind 5 kt from variable directions
Visibility: 7000 m
Scattered clouds at a height of 3000 ft

TAF: LIPQ 160500Z 1606/1706 VRB05KT 7000 SCT030

Weather observations and forecasts of more than 4000 airports (METAR and TAF reports).

The available stations are represented by yellow and red dots on the map.

Hover mouse over dot to see the name of the station.

Then click to see weather observations and forecasts.

To change the map : click on the green buttons with a black cross to zoom in, on the green button with a dash to zoom out, or on the green arrows for adjacent maps.


METAR-TAF: